createdAt,value
2022-10-28T00:01:04.639Z,20.78
2022-10-28T00:03:06.169Z,20.56
2022-10-28T00:05:07.552Z,21.12
2022-10-28T00:07:08.847Z,21.29
2022-10-28T00:09:12.205Z,21.29
2022-10-28T00:11:13.773Z,21.27
2022-10-28T00:13:15.063Z,21.26
2022-10-28T00:15:16.344Z,21.21
2022-10-28T00:17:17.697Z,21.17
2022-10-28T00:19:18.990Z,21.14
2022-10-28T00:21:20.261Z,21.12
2022-10-28T00:23:21.554Z,21.11
2022-10-28T00:25:24.932Z,21.08
2022-10-28T00:27:26.299Z,21.03
2022-10-28T00:29:27.561Z,20.99
2022-10-28T00:31:28.893Z,20.96
2022-10-28T00:33:30.167Z,20.93
2022-10-28T00:35:31.431Z,20.89
2022-10-28T00:37:32.706Z,20.87
2022-10-28T00:39:33.977Z,20.86
2022-10-28T00:41:35.260Z,20.83
2022-10-28T00:43:36.577Z,20.80
2022-10-28T00:45:37.854Z,20.77
2022-10-28T00:47:39.118Z,20.73
2022-10-28T00:49:40.430Z,20.71
2022-10-28T00:51:41.759Z,20.69
2022-10-28T00:53:43.078Z,20.67
2022-10-28T00:55:44.338Z,20.64
2022-10-28T00:57:45.593Z,20.62
2022-10-28T00:59:46.898Z,20.61
2022-10-28T01:01:48.295Z,20.58
2022-10-28T01:03:49.633Z,20.57
2022-10-28T01:05:52.123Z,20.65
2022-10-28T01:07:53.705Z,20.62
2022-10-28T01:09:55.102Z,20.60
2022-10-28T01:11:56.427Z,20.56
2022-10-28T01:13:57.690Z,20.54
2022-10-28T01:15:58.988Z,20.52
2022-10-28T01:18:00.263Z,20.53
2022-10-28T01:20:01.521Z,20.51
2022-10-28T01:22:02.813Z,20.49
2022-10-28T01:24:04.089Z,20.48
2022-10-28T01:26:05.393Z,20.47
2022-10-28T01:28:06.677Z,20.46
2022-10-28T01:30:08.162Z,20.44
2022-10-28T01:32:09.487Z,20.43
2022-10-28T01:34:10.968Z,20.42
2022-10-28T01:36:12.244Z,20.42
2022-10-28T01:38:14.323Z,20.42
2022-10-28T01:40:15.658Z,20.40
2022-10-28T01:42:16.933Z,20.40
2022-10-28T01:44:18.223Z,20.38
2022-10-28T01:46:19.557Z,20.36
2022-10-28T01:48:21.376Z,20.33
2022-10-28T01:50:22.637Z,20.30
2022-10-28T01:52:23.994Z,20.31
2022-10-28T01:54:25.272Z,20.36
2022-10-28T01:56:26.547Z,20.38
2022-10-28T01:58:27.863Z,20.38
2022-10-28T02:00:29.302Z,20.38
2022-10-28T02:02:30.607Z,20.36
2022-10-28T02:04:31.900Z,20.36
2022-10-28T02:06:34.771Z,20.36
2022-10-28T02:08:36.135Z,20.34
2022-10-28T02:10:37.422Z,20.36
2022-10-28T02:12:38.865Z,20.35
2022-10-28T02:14:40.168Z,20.34
2022-10-28T02:16:41.442Z,20.34
2022-10-28T02:18:42.765Z,20.35
2022-10-28T02:20:44.049Z,20.34
2022-10-28T02:22:45.358Z,20.38
2022-10-28T02:24:47.398Z,20.38
2022-10-28T02:26:48.676Z,20.38
2022-10-28T02:28:50.005Z,20.38
2022-10-28T02:30:51.311Z,20.38
2022-10-28T02:32:52.717Z,20.36
2022-10-28T02:34:54.276Z,20.35
2022-10-28T02:36:55.538Z,20.35
2022-10-28T02:38:56.836Z,20.35
2022-10-28T02:40:58.132Z,20.38
2022-10-28T02:42:59.411Z,20.46
2022-10-28T02:45:00.810Z,20.43
2022-10-28T02:47:02.091Z,20.38
2022-10-28T02:49:03.394Z,20.33
2022-10-28T02:51:04.693Z,20.31
2022-10-28T02:53:06.008Z,20.30
2022-10-28T02:55:07.348Z,20.31
2022-10-28T02:57:08.650Z,20.30
2022-10-28T02:59:11.097Z,20.30
2022-10-28T03:01:12.521Z,20.32
2022-10-28T03:03:13.902Z,20.32
2022-10-28T03:05:15.198Z,20.33
2022-10-28T03:07:16.529Z,20.31
2022-10-28T03:09:17.787Z,20.32
2022-10-28T03:11:20.161Z,20.32
2022-10-28T03:13:21.441Z,20.31
2022-10-28T03:15:22.714Z,20.31
2022-10-28T03:17:23.975Z,20.31
2022-10-28T03:19:25.516Z,20.31
2022-10-28T03:21:26.832Z,20.32
2022-10-28T03:23:29.248Z,20.32
2022-10-28T03:25:31.461Z,20.29
2022-10-28T03:27:32.733Z,20.29
2022-10-28T03:29:34.040Z,20.28
2022-10-28T03:31:35.381Z,20.26
2022-10-28T03:33:36.668Z,20.23
2022-10-28T03:35:38.142Z,20.23
2022-10-28T03:37:39.409Z,20.23
2022-10-28T03:39:40.762Z,20.21
2022-10-28T03:41:42.050Z,20.20
2022-10-28T03:43:43.336Z,20.22
2022-10-28T03:45:44.621Z,20.21
2022-10-28T03:47:45.939Z,20.22
2022-10-28T03:49:47.398Z,20.22
2022-10-28T03:51:48.670Z,20.21
2022-10-28T03:53:49.933Z,20.20
2022-10-28T03:55:51.211Z,20.20
2022-10-28T03:57:52.752Z,20.18
2022-10-28T03:59:54.227Z,20.17
2022-10-28T04:01:55.708Z,20.17
2022-10-28T04:03:57.515Z,20.20
2022-10-28T04:05:58.790Z,20.17
2022-10-28T04:08:00.134Z,20.16
2022-10-28T04:10:01.437Z,20.14
2022-10-28T04:12:02.803Z,20.13
2022-10-28T04:14:04.181Z,20.13
2022-10-28T04:16:05.460Z,20.11
2022-10-28T04:18:06.768Z,20.09
2022-10-28T04:20:08.098Z,20.09
2022-10-28T04:22:09.776Z,20.08
2022-10-28T04:24:11.061Z,20.07
2022-10-28T04:26:12.409Z,20.06
2022-10-28T04:28:13.682Z,20.08
2022-10-28T04:30:14.977Z,20.13
2022-10-28T04:32:16.294Z,20.14
2022-10-28T04:34:17.803Z,20.12
2022-10-28T04:36:19.262Z,20.13
2022-10-28T04:38:20.594Z,20.13
2022-10-28T04:40:21.937Z,20.12
2022-10-28T04:42:23.205Z,20.11
2022-10-28T04:44:24.544Z,20.12
2022-10-28T04:46:25.847Z,20.14
2022-10-28T04:48:27.111Z,20.16
2022-10-28T04:50:28.411Z,20.21
2022-10-28T04:52:29.738Z,20.24
2022-10-28T04:54:31.013Z,20.25
2022-10-28T04:56:33.327Z,20.24
2022-10-28T04:58:34.597Z,20.25
2022-10-28T05:00:35.906Z,20.24
2022-10-28T05:02:37.194Z,20.24
2022-10-28T05:04:38.497Z,20.25
2022-10-28T05:06:39.773Z,20.25
2022-10-28T05:08:41.106Z,20.25
2022-10-28T05:10:42.386Z,20.26
2022-10-28T05:12:43.651Z,20.25
2022-10-28T05:14:44.962Z,20.26
2022-10-28T05:16:46.250Z,20.23
2022-10-28T05:18:47.518Z,20.23
2022-10-28T05:20:52.834Z,20.22
2022-10-28T05:22:55.335Z,20.25
2022-10-28T05:24:56.815Z,20.25
2022-10-28T05:26:58.606Z,20.23
2022-10-28T05:28:59.899Z,20.21
2022-10-28T05:31:01.173Z,20.19
2022-10-28T05:33:02.642Z,20.22
2022-10-28T05:35:03.966Z,20.24
2022-10-28T05:37:05.242Z,20.23
2022-10-28T05:39:06.546Z,20.21
2022-10-28T05:41:07.843Z,20.19
2022-10-28T05:43:09.423Z,20.22
2022-10-28T05:45:10.699Z,20.22
2022-10-28T05:47:11.976Z,20.19
2022-10-28T05:49:13.244Z,20.17
2022-10-28T05:51:14.558Z,20.16
2022-10-28T05:53:15.826Z,20.17
2022-10-28T05:55:19.391Z,20.19
2022-10-28T05:57:20.678Z,20.20
2022-10-28T05:59:22.014Z,20.20
2022-10-28T06:01:23.397Z,20.18
2022-10-28T06:03:30.030Z,20.14
2022-10-28T06:05:32.559Z,20.21
2022-10-28T06:07:34.875Z,20.24
2022-10-28T06:09:36.179Z,20.24
2022-10-28T06:11:35.936Z,20.20
2022-10-28T06:13:37.227Z,20.17
2022-10-28T06:15:38.506Z,20.13
2022-10-28T06:17:39.863Z,20.11
2022-10-28T06:19:41.138Z,20.09
2022-10-28T06:21:42.451Z,20.08
2022-10-28T06:23:43.766Z,20.08
2022-10-28T06:25:45.139Z,20.06
2022-10-28T06:27:46.451Z,20.08
2022-10-28T06:29:47.777Z,20.07
2022-10-28T06:31:49.098Z,20.07
2022-10-28T06:33:50.430Z,20.08
2022-10-28T06:35:51.748Z,20.10
2022-10-28T06:37:53.808Z,20.12
2022-10-28T06:39:57.260Z,20.14
2022-10-28T06:41:58.608Z,20.16
2022-10-28T06:43:59.899Z,20.18
2022-10-28T06:46:01.245Z,20.24
2022-10-28T06:48:04.064Z,20.34
2022-10-28T06:50:05.347Z,20.33
2022-10-28T06:52:06.625Z,20.32
2022-10-28T06:54:07.936Z,20.28
2022-10-28T06:56:09.210Z,20.24
2022-10-28T06:58:10.485Z,20.22
2022-10-28T07:00:11.770Z,20.20
2022-10-28T07:02:13.272Z,20.23
2022-10-28T07:04:14.865Z,20.28
2022-10-28T07:06:16.189Z,20.27
2022-10-28T07:08:17.521Z,20.27
2022-10-28T07:10:18.845Z,20.27
2022-10-28T07:12:20.131Z,20.25
2022-10-28T07:14:21.485Z,20.28
2022-10-28T07:16:22.798Z,20.26
2022-10-28T07:18:24.262Z,20.24
2022-10-28T07:20:25.717Z,20.23
2022-10-28T07:22:27.025Z,20.24
2022-10-28T07:24:28.756Z,20.24
2022-10-28T07:26:30.083Z,20.23
2022-10-28T07:28:31.492Z,20.21
2022-10-28T07:30:32.785Z,20.20
2022-10-28T07:32:34.069Z,20.21
2022-10-28T07:34:35.406Z,20.19
2022-10-28T07:36:36.880Z,20.23
2022-10-28T07:38:38.355Z,20.29
2022-10-28T07:40:39.699Z,20.49
2022-10-28T07:42:40.976Z,20.62
2022-10-28T07:44:42.258Z,20.43
2022-10-28T07:46:43.516Z,20.24
2022-10-28T07:48:44.843Z,20.14
2022-10-28T07:50:46.149Z,20.06
2022-10-28T07:52:47.445Z,20.01
2022-10-28T07:54:48.785Z,19.97
2022-10-28T07:56:50.804Z,19.93
2022-10-28T07:58:52.853Z,19.90
2022-10-28T08:00:54.194Z,19.89
2022-10-28T08:02:55.541Z,19.87
2022-10-28T08:04:56.847Z,19.87
2022-10-28T08:06:58.190Z,19.86
2022-10-28T08:08:59.545Z,19.89
2022-10-28T08:11:00.885Z,19.93
2022-10-28T08:13:02.199Z,19.98
2022-10-28T08:15:03.476Z,19.76
2022-10-28T08:17:04.755Z,19.42
2022-10-28T08:19:07.819Z,18.81
2022-10-28T08:21:09.312Z,19.31
2022-10-28T08:23:10.613Z,19.22
2022-10-28T08:25:11.884Z,19.18
2022-10-28T08:27:13.153Z,19.34
2022-10-28T08:29:14.436Z,19.56
2022-10-28T08:31:15.787Z,19.71
2022-10-28T08:33:17.068Z,19.83
2022-10-28T08:35:18.371Z,19.93
2022-10-28T08:37:19.713Z,19.99
2022-10-28T08:39:21.014Z,19.98
2022-10-28T08:41:22.349Z,19.93
2022-10-28T08:43:40.066Z,19.91
2022-10-28T08:45:44.981Z,19.16
2022-10-28T08:47:46.350Z,20.07
2022-10-28T08:49:49.348Z,20.12
2022-10-28T08:51:50.929Z,20.17
2022-10-28T08:53:52.210Z,20.22
2022-10-28T08:55:53.482Z,20.24
2022-10-28T08:57:54.792Z,20.28
2022-10-28T08:59:56.889Z,20.31
2022-10-28T09:01:58.216Z,20.33
2022-10-28T09:03:59.511Z,20.35
2022-10-28T09:06:00.897Z,20.38
2022-10-28T09:08:02.196Z,20.40
2022-10-28T09:10:03.480Z,20.42
2022-10-28T09:12:04.762Z,20.42
2022-10-28T09:14:06.294Z,20.42
2022-10-28T09:16:08.569Z,20.44
2022-10-28T09:18:11.605Z,20.45
2022-10-28T09:20:12.878Z,20.46
2022-10-28T09:22:18.290Z,20.46
2022-10-28T09:24:21.338Z,20.47
2022-10-28T09:26:22.654Z,20.48
2022-10-28T09:28:23.933Z,19.77
2022-10-28T09:30:28.007Z,20.51
2022-10-28T09:32:29.276Z,20.51
2022-10-28T09:34:30.628Z,20.52
2022-10-28T09:36:31.897Z,20.53
2022-10-28T09:38:33.163Z,20.53
2022-10-28T09:40:34.436Z,20.52
2022-10-28T09:42:35.805Z,20.51
2022-10-28T09:44:37.118Z,20.52
2022-10-28T09:46:38.423Z,20.52
2022-10-28T09:48:39.680Z,20.54
2022-10-28T09:50:40.989Z,20.56
2022-10-28T09:52:42.261Z,20.56
2022-10-28T09:54:43.537Z,20.58
2022-10-28T09:56:44.869Z,20.59
2022-10-28T09:58:46.776Z,20.60
2022-10-28T10:00:48.076Z,20.58
2022-10-28T10:02:49.404Z,20.61
2022-10-28T10:04:50.756Z,20.62
2022-10-28T10:06:52.032Z,20.64
2022-10-28T10:08:53.305Z,20.63
2022-10-28T10:10:54.600Z,20.65
2022-10-28T10:12:56.058Z,20.65
2022-10-28T10:14:57.730Z,20.66
2022-10-28T10:16:59.048Z,20.67
2022-10-28T10:19:00.324Z,20.68
2022-10-28T10:21:01.653Z,20.69
2022-10-28T10:23:02.949Z,20.71
2022-10-28T10:25:04.283Z,20.70
2022-10-28T10:27:05.634Z,20.73
2022-10-28T10:29:06.909Z,20.75
2022-10-28T10:31:08.190Z,20.76
2022-10-28T10:33:09.571Z,20.76
2022-10-28T10:35:12.826Z,20.76
2022-10-28T10:37:14.110Z,20.76
2022-10-28T10:39:15.417Z,20.77
2022-10-28T10:41:16.727Z,20.77
2022-10-28T10:43:18.036Z,20.75
2022-10-28T10:45:19.319Z,20.77
2022-10-28T10:47:20.763Z,20.78
2022-10-28T10:49:22.085Z,20.77
2022-10-28T10:51:23.428Z,20.77
2022-10-28T10:53:24.736Z,20.78
2022-10-28T10:55:26.057Z,20.79
2022-10-28T10:57:27.382Z,20.80
2022-10-28T10:59:28.659Z,20.81
2022-10-28T11:01:30.068Z,20.82
2022-10-28T11:03:31.521Z,20.85
2022-10-28T11:05:38.168Z,20.84
2022-10-28T11:07:42.676Z,20.84
2022-10-28T11:09:44.021Z,20.85
2022-10-28T11:11:45.284Z,20.87
2022-10-28T11:13:46.550Z,20.87
2022-10-28T11:15:47.821Z,20.90
2022-10-28T11:17:49.092Z,20.87
2022-10-28T11:19:50.359Z,20.88
2022-10-28T11:21:51.700Z,20.82
2022-10-28T11:23:52.993Z,20.79
2022-10-28T11:25:54.305Z,20.76
2022-10-28T11:27:57.602Z,20.62
2022-10-28T11:30:01.265Z,20.49
2022-10-28T11:32:02.562Z,20.40
2022-10-28T11:34:03.836Z,20.32
2022-10-28T11:36:05.114Z,20.29
2022-10-28T11:38:06.584Z,20.26
2022-10-28T11:40:07.862Z,20.21
2022-10-28T11:42:09.250Z,20.19
2022-10-28T11:44:10.539Z,20.22
2022-10-28T11:46:11.813Z,20.38
2022-10-28T11:48:13.145Z,20.47
2022-10-28T11:50:14.448Z,20.53
2022-10-28T11:52:15.715Z,20.53
2022-10-28T11:54:17.061Z,20.51
2022-10-28T11:56:18.391Z,20.50
2022-10-28T11:58:19.725Z,20.48
2022-10-28T12:00:21.059Z,20.42
2022-10-28T12:02:22.424Z,20.35
2022-10-28T12:04:23.785Z,20.29
2022-10-28T12:06:25.098Z,20.22
2022-10-28T12:08:26.357Z,20.18
2022-10-28T12:10:27.630Z,20.14
2022-10-28T12:12:28.950Z,20.13
2022-10-28T12:14:30.224Z,20.16
2022-10-28T12:16:31.509Z,20.19
2022-10-28T12:18:33.305Z,20.22
2022-10-28T12:20:34.600Z,20.32
2022-10-28T12:22:35.859Z,20.47
2022-10-28T12:24:37.244Z,20.61
2022-10-28T12:26:38.572Z,20.71
2022-10-28T12:28:39.865Z,20.77
2022-10-28T12:30:41.149Z,20.80
2022-10-28T12:32:42.624Z,20.76
2022-10-28T12:34:43.893Z,20.69
2022-10-28T12:36:45.177Z,20.58
2022-10-28T12:38:46.494Z,20.49
2022-10-28T12:40:47.762Z,20.42
2022-10-28T12:42:49.073Z,20.38
2022-10-28T12:44:52.947Z,20.36
2022-10-28T12:46:55.414Z,20.32
2022-10-28T12:48:56.820Z,20.30
2022-10-28T12:50:58.115Z,20.32
2022-10-28T12:52:59.636Z,20.32
2022-10-28T12:55:01.012Z,20.32
2022-10-28T12:57:02.312Z,20.31
2022-10-28T13:01:10.494Z,20.34
2022-10-28T13:03:12.001Z,20.35
2022-10-28T13:05:13.276Z,20.38
2022-10-28T13:07:14.603Z,20.39
2022-10-28T13:09:15.910Z,20.41
2022-10-28T13:11:17.181Z,20.43
2022-10-28T13:13:18.518Z,20.43
2022-10-28T13:15:19.920Z,20.36
2022-10-28T13:17:21.189Z,20.30
2022-10-28T13:19:23.780Z,20.23
2022-10-28T13:21:25.088Z,20.18
2022-10-28T13:23:27.440Z,20.13
2022-10-28T13:25:28.772Z,20.08
2022-10-28T13:27:30.097Z,20.04
2022-10-28T13:29:31.408Z,20.03
2022-10-28T13:31:32.681Z,20.04
2022-10-28T13:33:33.989Z,20.00
2022-10-28T13:35:35.301Z,19.98
2022-10-28T13:37:36.637Z,19.97
2022-10-28T13:39:37.908Z,19.96
2022-10-28T13:41:41.007Z,19.93
2022-10-28T13:43:44.782Z,19.92
2022-10-28T13:45:48.281Z,19.88
2022-10-28T13:47:49.610Z,19.87
2022-10-28T13:49:50.925Z,19.84
2022-10-28T13:51:52.253Z,19.83
2022-10-28T13:53:54.128Z,19.79
2022-10-28T13:55:55.400Z,19.78
2022-10-28T13:57:56.874Z,19.77
2022-10-28T13:59:58.314Z,19.76
2022-10-28T14:02:32.476Z,19.75
2022-10-28T14:04:20.860Z,19.75
2022-10-28T14:06:24.906Z,19.75
2022-10-28T14:08:29.521Z,19.77
2022-10-28T14:10:30.788Z,19.76
2022-10-28T14:12:32.093Z,19.77
2022-10-28T14:14:33.388Z,19.75
2022-10-28T14:16:34.653Z,19.74
2022-10-28T14:18:43.629Z,19.73
2022-10-28T14:20:45.755Z,19.72
2022-10-28T14:22:47.087Z,19.70
2022-10-28T14:24:48.389Z,19.69
2022-10-28T14:26:49.674Z,18.83
2022-10-28T14:28:52.242Z,19.67
2022-10-28T14:30:54.141Z,19.66
2022-10-28T14:32:55.748Z,19.66
2022-10-28T14:34:57.177Z,19.63
2022-10-28T14:36:58.468Z,19.63
2022-10-28T14:38:59.768Z,19.61
2022-10-28T14:41:01.033Z,19.59
2022-10-28T14:43:02.301Z,19.58
2022-10-28T14:45:03.613Z,19.57
2022-10-28T14:47:04.921Z,19.55
2022-10-28T14:49:13.821Z,19.53
2022-10-28T14:51:15.433Z,19.51
2022-10-28T14:53:16.728Z,19.51
2022-10-28T14:55:18.002Z,19.50
2022-10-28T14:57:22.755Z,19.49
2022-10-28T14:59:24.284Z,19.47
2022-10-28T15:01:25.888Z,19.47
2022-10-28T15:03:27.233Z,19.46
2022-10-28T15:05:32.404Z,19.47
2022-10-28T15:07:37.831Z,19.48
2022-10-28T15:09:39.841Z,19.53
2022-10-28T15:11:41.116Z,19.52
2022-10-28T15:13:42.377Z,19.52
2022-10-28T15:15:43.682Z,19.54
2022-10-28T15:17:44.962Z,19.59
2022-10-28T15:19:46.449Z,20.09
2022-10-28T15:21:47.753Z,20.28
2022-10-28T15:23:49.017Z,20.26
2022-10-28T15:25:50.333Z,19.13
2022-10-28T15:27:51.837Z,20.90
2022-10-28T15:29:53.542Z,21.40
2022-10-28T15:31:54.858Z,21.52
2022-10-28T15:33:56.112Z,21.64
2022-10-28T15:35:58.349Z,21.78
2022-10-28T15:37:59.637Z,21.66
2022-10-28T15:40:06.202Z,21.51
2022-10-28T15:42:12.545Z,21.74
2022-10-28T15:44:13.829Z,21.53
2022-10-28T15:46:15.152Z,21.94
2022-10-28T15:48:16.425Z,22.02
2022-10-28T15:50:17.707Z,22.14
2022-10-28T15:52:19.051Z,21.98
2022-10-28T15:54:20.465Z,21.90
2022-10-28T15:56:21.765Z,21.82
2022-10-28T15:58:23.077Z,22.02
2022-10-28T16:00:24.404Z,22.06
2022-10-28T16:02:25.787Z,22.10
2022-10-28T16:04:27.126Z,22.02
2022-10-28T16:06:28.554Z,21.66
2022-10-28T16:08:29.917Z,21.25
2022-10-28T16:10:31.252Z,21.04
2022-10-28T16:12:32.567Z,21.47
2022-10-28T16:14:33.872Z,21.69
2022-10-28T16:16:35.154Z,21.71
2022-10-28T16:18:36.429Z,21.76
2022-10-28T16:20:37.724Z,21.62
2022-10-28T16:22:39.151Z,21.54
2022-10-28T16:24:40.429Z,21.49
2022-10-28T16:26:41.694Z,21.47
2022-10-28T16:28:45.348Z,21.60
2022-10-28T16:30:46.776Z,21.45
2022-10-28T16:32:48.754Z,21.54
2022-10-28T16:34:50.022Z,21.67
2022-10-28T16:36:54.242Z,21.70
2022-10-28T16:38:55.565Z,21.72
2022-10-28T16:40:56.847Z,21.82
2022-10-28T16:42:58.445Z,21.93
2022-10-28T16:44:59.837Z,21.87
2022-10-28T16:47:01.151Z,21.89
2022-10-28T16:49:02.464Z,21.85
2022-10-28T16:51:03.744Z,21.68
2022-10-28T16:53:05.022Z,21.38
2022-10-28T16:55:08.977Z,20.15
2022-10-28T16:57:10.287Z,21.59
2022-10-28T16:59:11.668Z,21.73
2022-10-28T17:01:13.386Z,21.46
2022-10-28T17:03:15.457Z,21.28
2022-10-28T17:05:16.940Z,21.18
2022-10-28T17:07:18.492Z,21.11
2022-10-28T17:09:20.009Z,21.04
2022-10-28T17:11:21.330Z,21.00
2022-10-28T17:13:22.686Z,20.96
2022-10-28T17:15:23.956Z,20.94
2022-10-28T17:17:25.429Z,20.90
2022-10-28T17:19:26.740Z,20.16
2022-10-28T17:21:28.026Z,20.89
2022-10-28T17:23:29.349Z,20.90
2022-10-28T17:25:30.668Z,20.92
2022-10-28T17:27:31.986Z,20.94
2022-10-28T17:29:33.280Z,20.95
2022-10-28T17:31:34.613Z,20.94
2022-10-28T17:33:35.885Z,20.92
2022-10-28T17:35:37.164Z,20.90
2022-10-28T17:37:41.368Z,20.91
2022-10-28T17:39:42.712Z,21.01
2022-10-28T17:41:56.031Z,21.64
2022-10-28T17:43:57.319Z,21.82
2022-10-28T17:45:59.699Z,21.91
2022-10-28T17:48:00.980Z,21.92
2022-10-28T17:50:02.326Z,21.94
2022-10-28T17:52:03.605Z,21.95
2022-10-28T17:54:06.116Z,21.95
2022-10-28T17:56:07.489Z,21.95
2022-10-28T17:58:14.918Z,22.03
2022-10-28T18:00:19.270Z,22.30
2022-10-28T18:02:20.609Z,22.18
2022-10-28T18:04:28.357Z,22.10
2022-10-28T18:06:29.893Z,22.09
2022-10-28T18:08:31.188Z,22.06
2022-10-28T18:10:32.480Z,22.07
2022-10-28T18:12:33.780Z,22.04
2022-10-28T18:14:35.088Z,22.09
2022-10-28T18:16:39.309Z,22.11
2022-10-28T18:18:42.517Z,22.08
2022-10-28T18:20:44.353Z,22.11
2022-10-28T18:22:45.695Z,21.58
2022-10-28T18:24:46.984Z,21.36
2022-10-28T18:26:48.264Z,21.27
2022-10-28T18:28:49.749Z,21.20
2022-10-28T18:30:51.020Z,21.35
2022-10-28T18:32:52.534Z,21.59
2022-10-28T18:34:54.117Z,21.76
2022-10-28T18:36:55.468Z,21.90
2022-10-28T18:38:56.871Z,21.96
2022-10-28T18:40:58.163Z,21.98
2022-10-28T18:42:59.471Z,21.94
2022-10-28T18:45:00.965Z,21.73
2022-10-28T18:47:02.257Z,21.78
2022-10-28T18:49:04.383Z,21.85
2022-10-28T18:51:09.450Z,21.87
2022-10-28T18:53:10.779Z,21.95
2022-10-28T18:55:12.058Z,22.02
2022-10-28T18:57:13.354Z,22.00
2022-10-28T18:59:14.670Z,21.99
2022-10-28T19:01:16.579Z,22.01
2022-10-28T19:03:18.150Z,22.02
2022-10-28T19:05:19.440Z,21.91
2022-10-28T19:07:20.774Z,22.16
2022-10-28T19:09:22.054Z,22.29
2022-10-28T19:11:23.374Z,22.44
2022-10-28T19:13:24.653Z,22.81
2022-10-28T19:15:25.932Z,22.98
2022-10-28T19:17:27.213Z,23.20
2022-10-28T19:19:38.351Z,23.41
2022-10-28T19:21:40.705Z,22.81
2022-10-28T19:23:41.979Z,22.66
2022-10-28T19:25:44.741Z,22.61
2022-10-28T19:27:46.024Z,22.60
2022-10-28T19:29:47.364Z,22.59
2022-10-28T19:31:48.754Z,22.56
2022-10-28T19:33:50.097Z,22.65
2022-10-28T19:35:51.373Z,22.69
2022-10-28T19:37:53.326Z,22.50
2022-10-28T19:39:56.582Z,22.43
2022-10-28T19:41:58.069Z,22.37
2022-10-28T19:43:59.377Z,22.42
2022-10-28T19:46:01.259Z,22.43
2022-10-28T19:48:02.542Z,22.22
2022-10-28T19:50:03.824Z,22.09
2022-10-28T19:52:05.215Z,22.18
2022-10-28T19:54:06.529Z,22.24
2022-10-28T19:56:07.881Z,22.41
2022-10-28T19:58:09.276Z,22.51
2022-10-28T20:00:10.613Z,22.51
2022-10-28T20:02:11.987Z,22.61
2022-10-28T20:04:13.378Z,22.65
2022-10-28T20:06:17.739Z,22.65
2022-10-28T20:08:19.008Z,22.67
2022-10-28T20:10:20.278Z,22.69
2022-10-28T20:12:21.563Z,22.66
2022-10-28T20:14:23.044Z,22.64
2022-10-28T20:16:24.707Z,22.64
2022-10-28T20:18:26.031Z,22.62
2022-10-28T20:20:27.316Z,22.60
2022-10-28T20:22:28.636Z,22.63
2022-10-28T20:24:29.967Z,22.59
2022-10-28T20:26:31.282Z,22.61
2022-10-28T20:28:32.608Z,22.62
2022-10-28T20:30:34.088Z,22.63
2022-10-28T20:32:36.366Z,22.69
2022-10-28T20:34:37.703Z,22.42
2022-10-28T20:36:39.046Z,21.50
2022-10-28T20:38:40.332Z,21.10
2022-10-28T20:40:41.675Z,20.83
2022-10-28T20:42:42.950Z,20.73
2022-10-28T20:44:44.229Z,20.70
2022-10-28T20:46:47.818Z,21.30
2022-10-28T20:48:49.335Z,21.63
2022-10-28T20:50:50.831Z,21.93
2022-10-28T20:52:52.257Z,22.11
2022-10-28T20:54:53.809Z,22.21
2022-10-28T20:56:55.068Z,22.25
2022-10-28T20:58:56.393Z,22.29
2022-10-28T21:00:57.762Z,22.33
2022-10-28T21:02:59.558Z,22.36
2022-10-28T21:05:01.313Z,22.37
2022-10-28T21:07:02.746Z,22.34
2022-10-28T21:09:07.425Z,22.36
2022-10-28T21:11:08.778Z,22.87
2022-10-28T21:13:10.085Z,23.11
2022-10-28T21:15:11.418Z,23.03
2022-10-28T21:17:12.721Z,22.80
2022-10-28T21:19:13.999Z,22.89
2022-10-28T21:21:15.331Z,22.86
2022-10-28T21:23:16.755Z,23.34
2022-10-28T21:25:18.054Z,23.33
2022-10-28T21:27:19.331Z,23.31
2022-10-28T21:29:20.667Z,23.57
2022-10-28T21:31:21.998Z,23.73
2022-10-28T21:33:23.288Z,23.00
2022-10-28T21:35:24.612Z,22.46
2022-10-28T21:37:25.868Z,22.32
2022-10-28T21:39:27.162Z,22.31
2022-10-28T21:41:28.469Z,22.49
2022-10-28T21:43:29.870Z,22.48
2022-10-28T21:45:31.233Z,22.54
2022-10-28T21:47:32.499Z,22.53
2022-10-28T21:49:33.823Z,22.55
2022-10-28T21:51:35.108Z,22.50
2022-10-28T21:53:36.414Z,22.51
2022-10-28T21:55:52.359Z,22.50
2022-10-28T21:57:54.667Z,22.49
2022-10-28T21:59:56.291Z,22.49
2022-10-28T22:01:57.779Z,22.49
2022-10-28T22:03:59.172Z,22.42
2022-10-28T22:06:00.644Z,22.43
2022-10-28T22:08:04.497Z,22.46
2022-10-28T22:10:06.490Z,22.43
2022-10-28T22:12:07.777Z,22.42
2022-10-28T22:14:09.270Z,22.48
2022-10-28T22:16:10.550Z,22.61
2022-10-28T22:18:11.846Z,22.68
2022-10-28T22:20:13.222Z,22.63
2022-10-28T22:22:14.578Z,22.57
2022-10-28T22:24:15.898Z,22.25
2022-10-28T22:26:17.216Z,22.10
2022-10-28T22:28:18.515Z,22.30
2022-10-28T22:30:19.786Z,22.49
2022-10-28T22:32:21.069Z,22.61
2022-10-28T22:34:22.336Z,22.68
2022-10-28T22:36:23.668Z,22.77
2022-10-28T22:38:24.943Z,22.82
2022-10-28T22:40:26.424Z,22.80
2022-10-28T22:42:27.705Z,22.75
2022-10-28T22:44:28.985Z,22.66
2022-10-28T22:46:30.305Z,22.68
2022-10-28T22:48:31.641Z,22.60
2022-10-28T22:50:32.945Z,22.61
2022-10-28T22:52:34.232Z,22.60
2022-10-28T22:54:35.505Z,22.51
2022-10-28T22:56:37.032Z,22.48
2022-10-28T22:58:38.381Z,22.56
2022-10-28T23:00:39.672Z,22.51
2022-10-28T23:02:41.011Z,21.53
2022-10-28T23:04:42.513Z,21.28
2022-10-28T23:06:43.833Z,21.57
2022-10-28T23:08:45.149Z,21.73
2022-10-28T23:10:46.421Z,21.80
2022-10-28T23:12:47.757Z,21.82
2022-10-28T23:14:49.040Z,21.81
2022-10-28T23:16:50.321Z,21.79
2022-10-28T23:18:52.919Z,21.77
2022-10-28T23:20:54.309Z,21.76
2022-10-28T23:22:56.416Z,21.76
2022-10-28T23:24:57.714Z,21.72
2022-10-28T23:26:59.057Z,21.68
2022-10-28T23:29:00.645Z,21.64
2022-10-28T23:31:02.447Z,21.61
2022-10-28T23:33:03.739Z,21.58
2022-10-28T23:35:05.089Z,21.54
2022-10-28T23:37:06.389Z,21.51
2022-10-28T23:39:07.675Z,21.46
2022-10-28T23:41:08.961Z,21.44
2022-10-28T23:43:10.294Z,21.40
2022-10-28T23:45:11.555Z,21.40
2022-10-28T23:47:12.849Z,21.38
2022-10-28T23:49:14.105Z,21.40
2022-10-28T23:51:15.530Z,21.41
2022-10-28T23:53:16.930Z,21.39
2022-10-28T23:55:18.314Z,21.38
2022-10-28T23:57:19.708Z,21.36
2022-10-28T23:59:20.992Z,21.34
